createdAt,value
2022-09-28T00:00:05.300Z,16.40
2022-09-28T00:00:15.300Z,16.40
2022-09-28T00:00:25.303Z,16.40
2022-09-28T00:00:35.299Z,16.40
2022-09-28T00:00:45.299Z,16.41
2022-09-28T00:00:55.303Z,16.40
2022-09-28T00:01:05.302Z,16.40
2022-09-28T00:01:15.306Z,16.40
2022-09-28T00:01:25.454Z,16.40
2022-09-28T00:01:35.364Z,16.40
2022-09-28T00:01:45.423Z,16.40
2022-09-28T00:01:55.434Z,16.41
2022-09-28T00:02:05.440Z,16.40
2022-09-28T00:02:15.398Z,16.40
2022-09-28T00:02:25.414Z,16.38
2022-09-28T00:02:35.442Z,16.40
2022-09-28T00:02:45.406Z,16.41
2022-09-28T00:02:55.328Z,16.40
2022-09-28T00:03:05.413Z,16.40
2022-09-28T00:03:15.296Z,16.38
2022-09-28T00:03:25.312Z,16.38
2022-09-28T00:03:35.312Z,16.40
2022-09-28T00:03:45.312Z,16.40
2022-09-28T00:03:55.314Z,16.40
2022-09-28T00:04:05.315Z,16.40
2022-09-28T00:04:15.319Z,16.38
2022-09-28T00:04:25.315Z,16.40
2022-09-28T00:04:35.316Z,16.38
2022-09-28T00:04:45.318Z,16.38
2022-09-28T00:04:55.315Z,16.40
2022-09-28T00:05:05.316Z,16.40
2022-09-28T00:05:15.320Z,16.40
2022-09-28T00:05:25.321Z,16.40
2022-09-28T00:05:35.332Z,16.40
2022-09-28T00:05:45.317Z,16.38
2022-09-28T00:05:55.320Z,16.40
2022-09-28T00:06:05.320Z,16.40
2022-09-28T00:06:15.321Z,16.38
2022-09-28T00:06:25.321Z,16.38
2022-09-28T00:06:35.322Z,16.38
2022-09-28T00:06:45.323Z,16.40
2022-09-28T00:06:55.325Z,16.40
2022-09-28T00:07:05.328Z,16.40
2022-09-28T00:07:15.330Z,16.38
2022-09-28T00:07:25.331Z,16.40
2022-09-28T00:07:35.332Z,16.40
2022-09-28T00:07:45.337Z,16.41
2022-09-28T00:07:55.331Z,16.40
2022-09-28T00:08:05.333Z,16.38
2022-09-28T00:08:15.339Z,16.41
2022-09-28T00:08:25.334Z,16.40
2022-09-28T00:08:35.335Z,16.41
2022-09-28T00:08:45.341Z,16.40
2022-09-28T00:08:55.338Z,16.40
2022-09-28T00:09:05.341Z,16.40
2022-09-28T00:09:15.337Z,16.41
2022-09-28T00:09:25.347Z,16.38
2022-09-28T00:09:35.339Z,16.40
2022-09-28T00:09:45.350Z,16.40
2022-09-28T00:09:55.340Z,16.38
2022-09-28T00:10:05.340Z,16.38
2022-09-28T00:10:15.340Z,16.41
2022-09-28T00:10:25.340Z,16.40
2022-09-28T00:10:35.342Z,16.38
2022-09-28T00:10:45.350Z,16.38
2022-09-28T00:10:55.344Z,16.40
2022-09-28T00:11:05.345Z,16.40
2022-09-28T00:11:15.397Z,16.38
2022-09-28T00:11:25.346Z,16.38
2022-09-28T00:11:35.348Z,16.40
2022-09-28T00:11:45.348Z,16.38
2022-09-28T00:11:55.352Z,16.40
2022-09-28T00:12:05.335Z,16.38
2022-09-28T00:12:15.352Z,16.38
2022-09-28T00:12:25.354Z,16.38
2022-09-28T00:12:35.351Z,16.38
2022-09-28T00:12:45.352Z,16.38
2022-09-28T00:12:55.357Z,16.38
2022-09-28T00:13:05.354Z,16.37
2022-09-28T00:13:15.354Z,16.38
2022-09-28T00:13:25.355Z,16.38
2022-09-28T00:13:35.355Z,16.38
2022-09-28T00:13:45.356Z,16.38
2022-09-28T00:13:55.371Z,16.38
2022-09-28T00:14:05.360Z,16.40
2022-09-28T00:14:15.362Z,16.38
2022-09-28T00:14:25.363Z,16.38
2022-09-28T00:14:35.360Z,16.37
2022-09-28T00:14:45.350Z,16.40
2022-09-28T00:14:55.362Z,16.38
2022-09-28T00:15:05.364Z,16.38
2022-09-28T00:15:15.365Z,16.40
2022-09-28T00:15:25.366Z,16.38
2022-09-28T00:15:35.366Z,16.40
2022-09-28T00:15:45.368Z,16.38
2022-09-28T00:15:55.389Z,16.38
2022-09-28T00:16:05.437Z,16.37
2022-09-28T00:16:15.391Z,16.37
2022-09-28T00:16:25.445Z,16.37
2022-09-28T00:16:35.410Z,16.40
2022-09-28T00:16:45.388Z,16.38
2022-09-28T00:16:55.395Z,16.37
2022-09-28T00:17:05.375Z,16.38
2022-09-28T00:17:15.392Z,16.38
2022-09-28T00:17:25.376Z,16.37
2022-09-28T00:17:35.375Z,16.37
2022-09-28T00:17:45.376Z,16.37
2022-09-28T00:17:55.378Z,16.38
2022-09-28T00:18:05.381Z,16.38
2022-09-28T00:18:15.382Z,16.38
2022-09-28T00:18:25.380Z,16.38
2022-09-28T00:18:35.380Z,16.40
2022-09-28T00:18:45.385Z,16.38
2022-09-28T00:18:55.382Z,16.38
2022-09-28T00:19:05.384Z,16.38
2022-09-28T00:19:15.504Z,16.37
2022-09-28T00:19:25.387Z,16.38
2022-09-28T00:19:35.385Z,16.38
2022-09-28T00:19:45.387Z,16.38
2022-09-28T00:19:55.387Z,16.37
2022-09-28T00:20:05.388Z,16.38
2022-09-28T00:20:15.388Z,16.37
2022-09-28T00:20:25.376Z,16.40
2022-09-28T00:20:35.375Z,16.37
2022-09-28T00:20:45.422Z,16.35
2022-09-28T00:20:55.391Z,16.38
2022-09-28T00:21:05.391Z,16.38
2022-09-28T00:21:15.392Z,16.38
2022-09-28T00:21:25.394Z,16.38
2022-09-28T00:21:35.394Z,16.38
2022-09-28T00:21:45.394Z,16.38
2022-09-28T00:21:55.396Z,16.37
2022-09-28T00:22:05.395Z,16.37
2022-09-28T00:22:15.396Z,16.37
2022-09-28T00:22:25.397Z,16.38
2022-09-28T00:22:35.397Z,16.37
2022-09-28T00:22:45.403Z,16.37
2022-09-28T00:22:55.406Z,16.38
2022-09-28T00:23:05.406Z,16.37
2022-09-28T00:23:15.399Z,16.37
2022-09-28T00:23:25.398Z,16.38
2022-09-28T00:23:35.399Z,16.38
2022-09-28T00:23:45.402Z,16.35
2022-09-28T00:23:55.400Z,16.37
2022-09-28T00:24:05.400Z,16.38
2022-09-28T00:24:15.443Z,16.38
2022-09-28T00:24:27.787Z,16.38
2022-09-28T00:24:35.403Z,16.38
2022-09-28T00:24:45.404Z,16.37
2022-09-28T00:24:55.402Z,16.37
2022-09-28T00:25:05.404Z,16.37
2022-09-28T00:25:15.430Z,16.37
2022-09-28T00:25:25.405Z,16.38
2022-09-28T00:25:35.407Z,16.37
2022-09-28T00:25:45.408Z,16.37
2022-09-28T00:25:55.411Z,16.38
2022-09-28T00:26:05.395Z,16.37
2022-09-28T00:26:15.408Z,16.37
2022-09-28T00:26:25.410Z,16.37
2022-09-28T00:26:35.410Z,16.37
2022-09-28T00:26:45.412Z,16.37
2022-09-28T00:26:55.423Z,16.37
2022-09-28T00:27:05.398Z,16.37
2022-09-28T00:27:15.413Z,16.37
2022-09-28T00:27:25.416Z,16.38
2022-09-28T00:27:35.425Z,16.35
2022-09-28T00:27:45.414Z,16.37
2022-09-28T00:27:55.416Z,16.37
2022-09-28T00:28:05.420Z,16.38
2022-09-28T00:28:15.419Z,16.35
2022-09-28T00:28:25.419Z,16.37
2022-09-28T00:28:35.421Z,16.37
2022-09-28T00:28:45.421Z,16.37
2022-09-28T00:28:55.420Z,16.37
2022-09-28T00:29:05.423Z,16.37
2022-09-28T00:29:15.482Z,16.38
2022-09-28T00:29:25.409Z,16.37
2022-09-28T00:29:35.423Z,16.37
2022-09-28T00:29:45.428Z,16.37
2022-09-28T00:29:55.425Z,16.37
2022-09-28T00:30:05.427Z,16.37
2022-09-28T00:30:15.426Z,16.35
2022-09-28T00:30:25.429Z,16.38
2022-09-28T00:30:35.415Z,16.37
2022-09-28T00:30:45.430Z,16.37
2022-09-28T00:30:55.418Z,16.37
2022-09-28T00:31:05.464Z,16.35
2022-09-28T00:31:15.524Z,16.37
2022-09-28T00:31:25.466Z,16.37
2022-09-28T00:31:35.526Z,16.35
2022-09-28T00:31:45.538Z,16.37
2022-09-28T00:31:55.510Z,16.37
2022-09-28T00:32:05.440Z,16.37
2022-09-28T00:32:15.432Z,16.37
2022-09-28T00:32:25.418Z,16.37
2022-09-28T00:32:35.433Z,16.35
2022-09-28T00:32:45.434Z,16.37
2022-09-28T00:32:55.437Z,16.37
2022-09-28T00:33:05.438Z,16.35
2022-09-28T00:33:15.440Z,16.37
2022-09-28T00:33:25.441Z,16.37
2022-09-28T00:33:35.443Z,16.35
2022-09-28T00:33:45.440Z,16.35
2022-09-28T00:33:55.439Z,16.35
2022-09-28T00:34:05.443Z,16.37
2022-09-28T00:34:15.443Z,16.37
2022-09-28T00:34:25.452Z,16.37
2022-09-28T00:34:35.448Z,16.37
2022-09-28T00:34:45.447Z,16.37
2022-09-28T00:34:55.447Z,16.35
2022-09-28T00:35:05.447Z,16.37
2022-09-28T00:35:15.450Z,16.35
2022-09-28T00:35:25.451Z,16.37
2022-09-28T00:35:35.453Z,16.34
2022-09-28T00:35:45.473Z,16.37
2022-09-28T00:35:55.451Z,16.35
2022-09-28T00:36:05.451Z,16.35
2022-09-28T00:36:15.452Z,16.37
2022-09-28T00:36:25.456Z,16.35
2022-09-28T00:36:35.458Z,16.37
2022-09-28T00:36:45.458Z,16.35
2022-09-28T00:36:55.459Z,16.35
2022-09-28T00:37:05.462Z,16.35
2022-09-28T00:37:15.467Z,16.35
2022-09-28T00:37:25.460Z,16.35
2022-09-28T00:37:35.462Z,16.35
2022-09-28T00:37:45.462Z,16.35
2022-09-28T00:37:55.463Z,16.35
2022-09-28T00:38:05.465Z,16.35
2022-09-28T00:38:15.461Z,16.37
2022-09-28T00:38:25.465Z,16.35
2022-09-28T00:38:35.465Z,16.37
2022-09-28T00:38:45.468Z,16.35
2022-09-28T00:38:55.467Z,16.35
2022-09-28T00:39:05.471Z,16.35
2022-09-28T00:39:15.559Z,16.35
2022-09-28T00:39:25.472Z,16.35
2022-09-28T00:39:35.469Z,16.35
2022-09-28T00:39:45.472Z,16.37
2022-09-28T00:39:55.472Z,16.38
2022-09-28T00:40:05.480Z,16.37
2022-09-28T00:40:15.544Z,16.35
2022-09-28T00:40:25.514Z,16.34
2022-09-28T00:40:35.528Z,16.35
2022-09-28T00:40:45.533Z,16.35
2022-09-28T00:40:55.534Z,16.35
2022-09-28T00:41:05.477Z,16.35
2022-09-28T00:41:15.480Z,16.35
2022-09-28T00:41:25.479Z,16.34
2022-09-28T00:41:35.483Z,16.34
2022-09-28T00:41:45.479Z,16.35
2022-09-28T00:41:55.481Z,16.35
2022-09-28T00:42:05.482Z,16.35
2022-09-28T00:42:15.485Z,16.34
2022-09-28T00:42:25.483Z,16.35
2022-09-28T00:42:35.500Z,16.35
2022-09-28T00:42:45.484Z,16.35
2022-09-28T00:42:55.485Z,16.35
2022-09-28T00:43:05.485Z,16.35
2022-09-28T00:43:15.486Z,16.35
2022-09-28T00:43:25.488Z,16.35
2022-09-28T00:43:35.491Z,16.35
2022-09-28T00:43:45.487Z,16.35
2022-09-28T00:43:55.491Z,16.34
2022-09-28T00:44:05.488Z,16.35
2022-09-28T00:44:15.489Z,16.35
2022-09-28T00:44:25.490Z,16.35
2022-09-28T00:44:35.492Z,16.35
2022-09-28T00:44:45.493Z,16.35
2022-09-28T00:44:55.490Z,16.34
2022-09-28T00:45:05.492Z,16.34
2022-09-28T00:45:15.512Z,16.35
2022-09-28T00:45:25.558Z,16.34
2022-09-28T00:45:35.564Z,16.37
2022-09-28T00:45:45.538Z,16.37
2022-09-28T00:45:55.520Z,16.35
2022-09-28T00:46:05.525Z,16.34
2022-09-28T00:46:15.755Z,16.35
2022-09-28T00:46:25.496Z,16.35
2022-09-28T00:46:35.503Z,16.35
2022-09-28T00:46:45.497Z,16.34
2022-09-28T00:46:55.521Z,16.34
2022-09-28T00:47:05.500Z,16.34
2022-09-28T00:47:15.500Z,16.35
2022-09-28T00:47:25.500Z,16.35
2022-09-28T00:47:35.504Z,16.35
2022-09-28T00:47:45.504Z,16.34
2022-09-28T00:47:55.501Z,16.35
2022-09-28T00:48:05.503Z,16.35
2022-09-28T00:48:15.506Z,16.34
2022-09-28T00:48:25.504Z,16.35
2022-09-28T00:48:35.505Z,16.34
2022-09-28T00:48:45.507Z,16.35
2022-09-28T00:48:55.512Z,16.37
2022-09-28T00:49:05.515Z,16.34
2022-09-28T00:49:15.596Z,16.35
2022-09-28T00:49:25.510Z,16.34
2022-09-28T00:49:35.510Z,16.34
2022-09-28T00:49:45.514Z,16.34
2022-09-28T00:49:55.514Z,16.35
2022-09-28T00:50:05.513Z,16.35
2022-09-28T00:50:15.513Z,16.34
2022-09-28T00:50:25.514Z,16.35
2022-09-28T00:50:35.515Z,16.34
2022-09-28T00:50:45.514Z,16.35
2022-09-28T00:50:55.518Z,16.34
2022-09-28T00:51:05.515Z,16.34
2022-09-28T00:51:15.516Z,16.35
2022-09-28T00:51:25.519Z,16.35
2022-09-28T00:51:35.521Z,16.34
2022-09-28T00:51:45.521Z,16.34
2022-09-28T00:51:55.527Z,16.34
2022-09-28T00:52:05.520Z,16.35
2022-09-28T00:52:15.522Z,16.34
2022-09-28T00:52:25.526Z,16.34
2022-09-28T00:52:35.523Z,16.34
2022-09-28T00:52:45.525Z,16.34
2022-09-28T00:52:55.537Z,16.34
2022-09-28T00:53:05.526Z,16.35
2022-09-28T00:53:15.526Z,16.33
2022-09-28T00:53:25.524Z,16.34
2022-09-28T00:53:35.529Z,16.34
2022-09-28T00:53:45.528Z,16.33
2022-09-28T00:53:55.531Z,16.34
2022-09-28T00:54:05.533Z,16.34
2022-09-28T00:54:15.530Z,16.34
2022-09-28T00:54:25.516Z,16.34
2022-09-28T00:54:35.532Z,16.34
2022-09-28T00:54:45.535Z,16.35
2022-09-28T00:54:55.567Z,16.34
2022-09-28T00:55:05.535Z,16.34
2022-09-28T00:55:15.536Z,16.33
2022-09-28T00:55:25.536Z,16.34
2022-09-28T00:55:35.537Z,16.35
2022-09-28T00:55:45.539Z,16.31
2022-09-28T00:55:55.554Z,16.34
2022-09-28T00:56:05.537Z,16.34
2022-09-28T00:56:15.539Z,16.34
2022-09-28T00:56:25.543Z,16.34
2022-09-28T00:56:35.541Z,16.34
2022-09-28T00:56:45.543Z,16.34
2022-09-28T00:56:55.545Z,16.34
2022-09-28T00:57:05.548Z,16.34
2022-09-28T00:57:15.548Z,16.33
2022-09-28T00:57:25.549Z,16.33
2022-09-28T00:57:35.546Z,16.35
2022-09-28T00:57:45.547Z,16.34
2022-09-28T00:57:55.556Z,16.35
2022-09-28T00:58:05.548Z,16.34
2022-09-28T00:58:15.549Z,16.35
2022-09-28T00:58:25.584Z,16.34
2022-09-28T00:58:35.556Z,16.34
2022-09-28T00:58:45.557Z,16.33
2022-09-28T00:58:55.575Z,16.33
2022-09-28T00:59:05.556Z,16.33
2022-09-28T00:59:15.557Z,16.33
2022-09-28T00:59:25.562Z,16.34
2022-09-28T00:59:35.563Z,16.34
2022-09-28T00:59:45.579Z,16.33
2022-09-28T00:59:55.570Z,16.34
2022-09-28T01:00:05.567Z,16.34
2022-09-28T01:00:15.562Z,16.33
2022-09-28T01:00:25.576Z,16.34
2022-09-28T01:00:35.607Z,16.34
2022-09-28T01:00:45.591Z,16.35
2022-09-28T01:00:55.615Z,16.33
2022-09-28T01:01:05.607Z,16.33
2022-09-28T01:01:15.620Z,16.34
2022-09-28T01:01:25.621Z,16.34
2022-09-28T01:01:35.569Z,16.33
2022-09-28T01:01:45.620Z,16.33
2022-09-28T01:01:55.592Z,16.33
2022-09-28T01:02:05.637Z,16.33
2022-09-28T01:02:15.610Z,16.34
2022-09-28T01:02:25.642Z,16.34
2022-09-28T01:02:35.576Z,16.34
2022-09-28T01:02:45.578Z,16.34
2022-09-28T01:02:55.575Z,16.34
2022-09-28T01:03:05.577Z,16.34
2022-09-28T01:03:15.579Z,16.33
2022-09-28T01:03:25.577Z,16.31
2022-09-28T01:03:35.577Z,16.34
2022-09-28T01:03:45.598Z,16.33
2022-09-28T01:03:55.581Z,16.34
2022-09-28T01:04:05.579Z,16.34
2022-09-28T01:04:15.584Z,16.34
2022-09-28T01:04:29.271Z,16.34
2022-09-28T01:04:35.586Z,16.33
2022-09-28T01:04:45.617Z,16.34
2022-09-28T01:04:55.593Z,16.34
2022-09-28T01:05:05.588Z,16.34
2022-09-28T01:05:15.590Z,16.34
2022-09-28T01:05:25.589Z,16.35
2022-09-28T01:05:35.590Z,16.33
2022-09-28T01:05:45.591Z,16.33
2022-09-28T01:05:55.614Z,16.33
2022-09-28T01:06:05.593Z,16.33
2022-09-28T01:06:15.600Z,16.34
2022-09-28T01:06:25.597Z,16.34
2022-09-28T01:06:35.583Z,16.34
2022-09-28T01:06:45.597Z,16.33
2022-09-28T01:06:55.596Z,16.34
2022-09-28T01:07:05.602Z,16.34
2022-09-28T01:07:15.600Z,16.34
2022-09-28T01:07:25.600Z,16.33
2022-09-28T01:07:35.610Z,16.33
2022-09-28T01:07:45.586Z,16.33
2022-09-28T01:07:55.604Z,16.34
2022-09-28T01:08:05.601Z,16.33
2022-09-28T01:08:15.608Z,16.34
2022-09-28T01:08:25.606Z,16.33
2022-09-28T01:08:35.604Z,16.34
2022-09-28T01:08:45.620Z,16.34
2022-09-28T01:08:55.607Z,16.33
2022-09-28T01:09:05.607Z,16.35
2022-09-28T01:09:15.621Z,16.33
2022-09-28T01:09:25.610Z,16.33
2022-09-28T01:09:35.611Z,16.34
2022-09-28T01:09:45.609Z,16.33
2022-09-28T01:09:55.615Z,16.33
2022-09-28T01:10:05.611Z,16.34
2022-09-28T01:10:15.612Z,16.34
2022-09-28T01:10:25.613Z,16.34
2022-09-28T01:10:35.616Z,16.34
2022-09-28T01:10:45.616Z,16.33
2022-09-28T01:10:55.616Z,16.33
2022-09-28T01:11:05.616Z,16.34
2022-09-28T01:11:15.620Z,16.34
2022-09-28T01:11:25.618Z,16.33
2022-09-28T01:11:35.619Z,16.33
2022-09-28T01:11:45.621Z,16.33
2022-09-28T01:11:55.622Z,16.34
2022-09-28T01:12:05.622Z,16.33
2022-09-28T01:12:15.624Z,16.33
2022-09-28T01:12:25.622Z,16.33
2022-09-28T01:12:35.623Z,16.34
2022-09-28T01:12:45.628Z,16.33
2022-09-28T01:12:55.630Z,16.34
2022-09-28T01:13:05.611Z,16.33
2022-09-28T01:13:15.630Z,16.33
2022-09-28T01:13:25.629Z,16.34
2022-09-28T01:13:35.630Z,16.31
2022-09-28T01:13:45.631Z,16.34
2022-09-28T01:13:55.619Z,16.34
2022-09-28T01:14:05.631Z,16.33
2022-09-28T01:14:15.654Z,16.33
2022-09-28T01:14:25.645Z,16.34
2022-09-28T01:14:35.635Z,16.33
2022-09-28T01:14:45.635Z,16.34
2022-09-28T01:14:55.638Z,16.34
2022-09-28T01:15:05.637Z,16.33
2022-09-28T01:15:15.651Z,16.35
2022-09-28T01:15:25.635Z,16.33
2022-09-28T01:15:35.639Z,16.34
2022-09-28T01:15:45.638Z,16.33
2022-09-28T01:15:55.678Z,16.33
2022-09-28T01:16:05.710Z,16.33
2022-09-28T01:16:15.701Z,16.33
2022-09-28T01:16:25.674Z,16.33
2022-09-28T01:16:35.691Z,16.33
2022-09-28T01:16:45.678Z,16.34
2022-09-28T01:16:55.645Z,16.34
2022-09-28T01:17:05.644Z,16.34
2022-09-28T01:17:15.644Z,16.34
2022-09-28T01:17:25.645Z,16.34
2022-09-28T01:17:35.647Z,16.31
2022-09-28T01:17:45.648Z,16.33
2022-09-28T01:17:55.651Z,16.33
2022-09-28T01:18:05.650Z,16.34
2022-09-28T01:18:15.650Z,16.33
2022-09-28T01:18:25.650Z,16.33
2022-09-28T01:18:35.649Z,16.33
2022-09-28T01:18:45.655Z,16.33
2022-09-28T01:18:55.652Z,16.33
2022-09-28T01:19:05.659Z,16.33
2022-09-28T01:19:15.653Z,16.34
2022-09-28T01:19:25.653Z,16.33
2022-09-28T01:19:35.658Z,16.33
2022-09-28T01:19:45.657Z,16.33
2022-09-28T01:19:55.659Z,16.33
2022-09-28T01:20:05.660Z,16.33
2022-09-28T01:20:15.662Z,16.31
2022-09-28T01:20:25.658Z,16.33
2022-09-28T01:20:35.658Z,16.31
2022-09-28T01:20:45.658Z,16.34
2022-09-28T01:20:55.658Z,16.33
2022-09-28T01:21:05.659Z,16.34
2022-09-28T01:21:15.660Z,16.34
2022-09-28T01:21:25.662Z,16.34
2022-09-28T01:21:35.662Z,16.33
2022-09-28T01:21:45.662Z,16.33
2022-09-28T01:21:55.664Z,16.34
2022-09-28T01:22:05.664Z,16.33
2022-09-28T01:22:15.666Z,16.34
2022-09-28T01:22:25.667Z,16.33
2022-09-28T01:22:35.670Z,16.33
2022-09-28T01:22:45.666Z,16.31
2022-09-28T01:22:55.671Z,16.31
2022-09-28T01:23:05.674Z,16.33
2022-09-28T01:23:15.670Z,16.33
2022-09-28T01:23:25.673Z,16.31
2022-09-28T01:23:35.673Z,16.31
2022-09-28T01:23:45.676Z,16.31
2022-09-28T01:23:55.674Z,16.33
2022-09-28T01:24:05.659Z,16.31
2022-09-28T01:24:15.674Z,16.33
2022-09-28T01:24:25.675Z,16.30
2022-09-28T01:24:35.676Z,16.31
2022-09-28T01:24:45.677Z,16.33
2022-09-28T01:24:55.681Z,16.33
2022-09-28T01:25:05.679Z,16.31
2022-09-28T01:25:15.680Z,16.33
2022-09-28T01:25:25.688Z,16.33
2022-09-28T01:25:35.680Z,16.33
2022-09-28T01:25:45.682Z,16.31
2022-09-28T01:25:55.684Z,16.33
2022-09-28T01:26:05.684Z,16.33
2022-09-28T01:26:15.693Z,16.31
2022-09-28T01:26:25.696Z,16.33
2022-09-28T01:26:35.689Z,16.33
2022-09-28T01:26:45.688Z,16.33
2022-09-28T01:26:55.689Z,16.33
2022-09-28T01:27:05.691Z,16.33
2022-09-28T01:27:15.691Z,16.31
2022-09-28T01:27:25.688Z,16.31
2022-09-28T01:27:35.689Z,16.31
2022-09-28T01:27:45.695Z,16.33
2022-09-28T01:27:55.692Z,16.31
2022-09-28T01:28:05.693Z,16.30
2022-09-28T01:28:15.692Z,16.31
2022-09-28T01:28:25.720Z,16.33
2022-09-28T01:28:35.696Z,16.31
2022-09-28T01:28:45.694Z,16.30
2022-09-28T01:28:55.705Z,16.33
2022-09-28T01:29:05.701Z,16.33
2022-09-28T01:29:15.699Z,16.33
2022-09-28T01:29:25.710Z,16.31
2022-09-28T01:29:35.698Z,16.33
2022-09-28T01:29:45.702Z,16.30
2022-09-28T01:29:55.705Z,16.33
2022-09-28T01:30:05.706Z,16.31
2022-09-28T01:30:15.701Z,16.33
2022-09-28T01:30:25.709Z,16.31
2022-09-28T01:30:35.703Z,16.30
2022-09-28T01:30:45.705Z,16.31
2022-09-28T01:30:55.716Z,16.31
2022-09-28T01:31:05.724Z,16.31
2022-09-28T01:31:15.739Z,16.33
2022-09-28T01:31:25.747Z,16.31
2022-09-28T01:31:35.765Z,16.33
2022-09-28T01:31:45.745Z,16.31
2022-09-28T01:31:55.759Z,16.31
2022-09-28T01:32:05.713Z,16.31
2022-09-28T01:32:15.712Z,16.31
2022-09-28T01:32:25.714Z,16.33
2022-09-28T01:32:35.715Z,16.31
2022-09-28T01:32:45.718Z,16.33
2022-09-28T01:32:55.717Z,16.31
2022-09-28T01:33:05.717Z,16.31
2022-09-28T01:33:15.704Z,16.33
2022-09-28T01:33:25.719Z,16.31
2022-09-28T01:33:35.721Z,16.31
2022-09-28T01:33:45.720Z,16.33
2022-09-28T01:33:55.720Z,16.33
2022-09-28T01:34:05.725Z,16.31
2022-09-28T01:34:15.723Z,16.33
2022-09-28T01:34:25.723Z,16.33
2022-09-28T01:34:35.727Z,16.31
2022-09-28T01:34:45.724Z,16.33
2022-09-28T01:34:55.730Z,16.31
2022-09-28T01:35:05.728Z,16.31
2022-09-28T01:35:15.732Z,16.33
2022-09-28T01:35:25.730Z,16.30
2022-09-28T01:35:35.731Z,16.31
2022-09-28T01:35:45.731Z,16.31
2022-09-28T01:35:55.761Z,16.31
2022-09-28T01:36:05.737Z,16.31
2022-09-28T01:36:15.737Z,16.31
2022-09-28T01:36:25.737Z,16.33
2022-09-28T01:36:35.722Z,16.31
2022-09-28T01:36:45.724Z,16.31
2022-09-28T01:36:55.739Z,16.31
2022-09-28T01:37:05.743Z,16.31
2022-09-28T01:37:15.742Z,16.31
2022-09-28T01:37:25.743Z,16.31
2022-09-28T01:37:35.746Z,16.31
2022-09-28T01:37:45.747Z,16.31
2022-09-28T01:37:55.747Z,16.30
2022-09-28T01:38:05.736Z,16.31
2022-09-28T01:38:15.749Z,16.30
2022-09-28T01:38:25.752Z,16.31
2022-09-28T01:38:35.755Z,16.30
2022-09-28T01:38:45.750Z,16.31
2022-09-28T01:38:55.754Z,16.31
2022-09-28T01:39:05.755Z,16.31
2022-09-28T01:39:15.817Z,16.31
2022-09-28T01:39:25.756Z,16.31
2022-09-28T01:39:35.790Z,16.30
2022-09-28T01:39:45.757Z,16.31
2022-09-28T01:39:55.760Z,16.31
2022-09-28T01:40:05.760Z,16.30
2022-09-28T01:40:15.803Z,16.30
2022-09-28T01:40:25.823Z,16.31
2022-09-28T01:40:35.811Z,16.30
2022-09-28T01:40:45.796Z,16.31
2022-09-28T01:40:55.807Z,16.31
2022-09-28T01:41:05.765Z,16.27
2022-09-28T01:41:15.764Z,16.31
2022-09-28T01:41:25.764Z,16.30
2022-09-28T01:41:35.752Z,16.31
2022-09-28T01:41:45.768Z,16.31
2022-09-28T01:41:55.771Z,16.27
2022-09-28T01:42:05.772Z,16.31
2022-09-28T01:42:15.768Z,16.30
2022-09-28T01:42:25.770Z,16.30
2022-09-28T01:42:35.771Z,16.30
2022-09-28T01:42:45.755Z,16.30
2022-09-28T01:42:55.771Z,16.30
2022-09-28T01:43:05.784Z,16.31
2022-09-28T01:43:15.771Z,16.30
2022-09-28T01:43:25.772Z,16.31
2022-09-28T01:43:35.771Z,16.30
2022-09-28T01:43:45.773Z,16.27
2022-09-28T01:43:55.761Z,16.30
2022-09-28T01:44:05.776Z,16.30
2022-09-28T01:44:15.777Z,16.31
2022-09-28T01:44:25.779Z,16.30
2022-09-28T01:44:35.778Z,16.31
2022-09-28T01:44:45.764Z,16.30
2022-09-28T01:44:55.785Z,16.30
2022-09-28T01:45:05.784Z,16.30
2022-09-28T01:45:15.781Z,16.31
2022-09-28T01:45:25.785Z,16.30
2022-09-28T01:45:35.834Z,16.30
2022-09-28T01:45:45.856Z,16.31
2022-09-28T01:45:55.810Z,16.30
2022-09-28T01:46:05.844Z,16.31
2022-09-28T01:46:15.801Z,16.30
2022-09-28T01:46:25.788Z,16.30
2022-09-28T01:46:35.788Z,16.31
2022-09-28T01:46:45.788Z,16.31
2022-09-28T01:46:55.786Z,16.30
2022-09-28T01:47:05.790Z,16.33
2022-09-28T01:47:15.791Z,16.31
2022-09-28T01:47:25.790Z,16.30
2022-09-28T01:47:35.792Z,16.31
2022-09-28T01:47:45.792Z,16.31
2022-09-28T01:47:55.793Z,16.31
2022-09-28T01:48:05.794Z,16.31
2022-09-28T01:48:15.794Z,16.30
2022-09-28T01:48:25.798Z,16.30
2022-09-28T01:48:35.796Z,16.31
2022-09-28T01:48:45.800Z,16.31
2022-09-28T01:48:55.801Z,16.30
2022-09-28T01:49:05.804Z,16.30
2022-09-28T01:49:15.903Z,16.30
2022-09-28T01:49:25.802Z,16.30
2022-09-28T01:49:35.804Z,16.30
2022-09-28T01:49:45.806Z,16.30
2022-09-28T01:49:55.809Z,16.30
2022-09-28T01:50:05.805Z,16.31
2022-09-28T01:50:15.807Z,16.30
2022-09-28T01:50:25.810Z,16.30
2022-09-28T01:50:35.808Z,16.31
2022-09-28T01:50:45.811Z,16.30
2022-09-28T01:50:55.818Z,16.31
2022-09-28T01:51:05.812Z,16.30
2022-09-28T01:51:15.812Z,16.31
2022-09-28T01:51:25.813Z,16.30
2022-09-28T01:51:35.813Z,16.31
2022-09-28T01:51:45.811Z,16.30
2022-09-28T01:51:55.815Z,16.31
2022-09-28T01:52:05.816Z,16.31
2022-09-28T01:52:15.817Z,16.30
2022-09-28T01:52:25.821Z,16.30
2022-09-28T01:52:35.819Z,16.31
2022-09-28T01:52:45.825Z,16.31
2022-09-28T01:52:55.806Z,16.31
2022-09-28T01:53:05.824Z,16.31
2022-09-28T01:53:15.824Z,16.30
2022-09-28T01:53:25.866Z,16.31
2022-09-28T01:53:35.840Z,16.30
2022-09-28T01:53:45.829Z,16.30
2022-09-28T01:53:55.829Z,16.30
2022-09-28T01:54:05.829Z,16.30
2022-09-28T01:54:15.829Z,16.31
2022-09-28T01:54:25.829Z,16.30
2022-09-28T01:54:35.831Z,16.31
2022-09-28T01:54:45.832Z,16.27
2022-09-28T01:54:55.838Z,16.30
2022-09-28T01:55:05.830Z,16.27
2022-09-28T01:55:15.832Z,16.31
2022-09-28T01:55:25.837Z,16.27
2022-09-28T01:55:35.835Z,16.30
2022-09-28T01:55:45.836Z,16.30
2022-09-28T01:55:55.836Z,16.30
2022-09-28T01:56:05.841Z,16.30
2022-09-28T01:56:15.838Z,16.27
2022-09-28T01:56:25.836Z,16.30
2022-09-28T01:56:35.838Z,16.27
2022-09-28T01:56:45.842Z,16.30
2022-09-28T01:56:55.843Z,16.30
2022-09-28T01:57:05.841Z,16.30
2022-09-28T01:57:15.833Z,16.30
2022-09-28T01:57:25.845Z,16.27
2022-09-28T01:57:35.845Z,16.30
2022-09-28T01:57:45.848Z,16.30
2022-09-28T01:57:55.847Z,16.30
2022-09-28T01:58:05.850Z,16.31
2022-09-28T01:58:15.850Z,16.30
2022-09-28T01:58:25.863Z,16.30
2022-09-28T01:58:35.853Z,16.30
2022-09-28T01:58:45.853Z,16.30
2022-09-28T01:58:55.854Z,16.30
2022-09-28T01:59:05.863Z,16.31
2022-09-28T01:59:15.963Z,16.31
2022-09-28T01:59:25.858Z,16.31
2022-09-28T01:59:35.858Z,16.30
2022-09-28T01:59:45.859Z,16.30
2022-09-28T01:59:55.873Z,16.30
2022-09-28T02:00:05.860Z,16.31
2022-09-28T02:00:15.865Z,16.30
2022-09-28T02:00:26.079Z,16.30
2022-09-28T02:00:35.915Z,16.30
2022-09-28T02:00:45.876Z,16.30
2022-09-28T02:00:55.952Z,16.27
2022-09-28T02:01:05.933Z,16.30
2022-09-28T02:01:15.915Z,16.27
2022-09-28T02:01:25.868Z,16.30
2022-09-28T02:01:35.869Z,16.31
2022-09-28T02:01:45.913Z,16.31
2022-09-28T02:01:55.899Z,16.30
2022-09-28T02:02:05.926Z,16.30
2022-09-28T02:02:15.992Z,16.30
2022-09-28T02:02:25.918Z,16.27
2022-09-28T02:02:35.878Z,16.30
2022-09-28T02:02:45.879Z,16.30
2022-09-28T02:02:55.869Z,16.27
2022-09-28T02:03:05.880Z,16.27
2022-09-28T02:03:15.880Z,16.30
2022-09-28T02:03:25.884Z,16.27
2022-09-28T02:03:35.879Z,16.31
2022-09-28T02:03:45.882Z,16.27
2022-09-28T02:03:55.882Z,16.30
2022-09-28T02:04:05.884Z,16.27
2022-09-28T02:04:15.884Z,16.26
2022-09-28T02:04:25.886Z,16.30
2022-09-28T02:04:35.885Z,16.30
2022-09-28T02:04:45.886Z,16.30
2022-09-28T02:04:55.898Z,16.30
2022-09-28T02:05:05.887Z,16.30
2022-09-28T02:05:15.887Z,16.30
2022-09-28T02:05:25.898Z,16.30
2022-09-28T02:05:35.891Z,16.27
2022-09-28T02:05:45.893Z,16.27
2022-09-28T02:05:55.876Z,16.27
2022-09-28T02:06:05.890Z,16.27
2022-09-28T02:06:15.891Z,16.27
2022-09-28T02:06:25.891Z,16.27
2022-09-28T02:06:35.895Z,16.30
2022-09-28T02:06:45.913Z,16.30
2022-09-28T02:06:55.897Z,16.30
2022-09-28T02:07:05.896Z,16.30
2022-09-28T02:07:15.896Z,16.30
2022-09-28T02:07:25.898Z,16.27
2022-09-28T02:07:35.899Z,16.27
2022-09-28T02:07:45.900Z,16.30
2022-09-28T02:07:55.902Z,16.31
2022-09-28T02:08:05.900Z,16.27
2022-09-28T02:08:15.902Z,16.27
2022-09-28T02:08:25.918Z,16.30
2022-09-28T02:08:35.907Z,16.26
2022-09-28T02:08:45.909Z,16.30